EWG57M EDDS-EDDH
Flight info
| Callsign | EWG57M |
|---|---|
| Flight time | 0h 57m |
| Altitude | 37000 |
| Route | OKIBA4B/25 OKIBA N851 RIMKI Z99 LOHRE DCT MASEK DCT ELNAT/N0433F360 P605 NOLGO NOLGO3P |
| Aircraft | A319/M-SDE3FGHIRWY/LB1 |
Departure
| Time | 2026-04-24 19:49 |
|---|---|
| Airport | Stuttgart Airport (EDDS) |
Arrival
| Time | 2026-04-24 20:46 |
|---|---|
| Airport | Hamburg Helmut Schmidt Airport (EDDH) |
| Time | Latitude | Longitude | Altitude | Speed | Heading |
|---|---|---|---|---|---|
| 2026-04-24 19:21 | 48.68925 | 9.19580 | 1315 ft | 0 kts | 344° |
| 2026-04-24 19:35 | 48.68907 | 9.19588 | 1313 ft | 4 kts | 344° |
| 2026-04-24 19:35 | 48.68883 | 9.19599 | 1312 ft | 1 kts | 344° |
| 2026-04-24 19:36 | 48.68862 | 9.19603 | 1310 ft | 4 kts | 21° |
| 2026-04-24 19:36 | 48.68844 | 9.19579 | 1310 ft | 4 kts | 70° |
| 2026-04-24 19:36 | 48.68842 | 9.19570 | 1310 ft | 1 kts | 74° |
| 2026-04-24 19:40 | 48.68846 | 9.19587 | 1310 ft | 4 kts | 74° |
| 2026-04-24 19:40 | 48.68857 | 9.19647 | 1309 ft | 7 kts | 74° |
| 2026-04-24 19:40 | 48.68872 | 9.19731 | 1307 ft | 6 kts | 73° |
| 2026-04-24 19:40 | 48.68874 | 9.19737 | 1307 ft | 0 kts | 73° |
| 2026-04-24 19:41 | 48.68878 | 9.19760 | 1306 ft | 4 kts | 73° |
| 2026-04-24 19:41 | 48.68891 | 9.19828 | 1304 ft | 7 kts | 77° |
| 2026-04-24 19:42 | 48.68888 | 9.19861 | 1303 ft | 0 kts | 114° |
| 2026-04-24 19:42 | 48.68867 | 9.19879 | 1301 ft | 7 kts | 159° |
| 2026-04-24 19:42 | 48.68813 | 9.19944 | 1296 ft | 13 kts | 101° |
| 2026-04-24 19:43 | 48.68848 | 9.20087 | 1293 ft | 16 kts | 73° |
| 2026-04-24 19:43 | 48.68883 | 9.20264 | 1289 ft | 19 kts | 74° |
| 2026-04-24 19:43 | 48.68923 | 9.20477 | 1287 ft | 23 kts | 74° |
| 2026-04-24 19:43 | 48.68970 | 9.20728 | 1277 ft | 26 kts | 74° |
| 2026-04-24 19:44 | 48.69024 | 9.21007 | 1272 ft | 27 kts | 74° |
| 2026-04-24 19:44 | 48.69072 | 9.21273 | 1265 ft | 28 kts | 74° |
| 2026-04-24 19:44 | 48.69119 | 9.21515 | 1259 ft | 24 kts | 73° |
| 2026-04-24 19:44 | 48.69168 | 9.21772 | 1258 ft | 26 kts | 73° |
| 2026-04-24 19:45 | 48.69216 | 9.22022 | 1249 ft | 26 kts | 74° |
| 2026-04-24 19:45 | 48.69269 | 9.22302 | 1250 ft | 29 kts | 73° |
| 2026-04-24 19:45 | 48.69317 | 9.22552 | 1235 ft | 23 kts | 74° |
| 2026-04-24 19:45 | 48.69363 | 9.22796 | 1230 ft | 26 kts | 74° |
| 2026-04-24 19:46 | 48.69414 | 9.23068 | 1224 ft | 26 kts | 74° |
| 2026-04-24 19:46 | 48.69460 | 9.23314 | 1219 ft | 25 kts | 73° |
| 2026-04-24 19:46 | 48.69511 | 9.23582 | 1214 ft | 26 kts | 74° |
| 2026-04-24 19:46 | 48.69539 | 9.23724 | 1211 ft | 20 kts | 73° |
| 2026-04-24 19:47 | 48.69580 | 9.23939 | 1206 ft | 23 kts | 73° |
| 2026-04-24 19:47 | 48.69610 | 9.24148 | 1200 ft | 16 kts | 101° |
| 2026-04-24 19:47 | 48.69537 | 9.24299 | 1193 ft | 21 kts | 155° |
| 2026-04-24 19:47 | 48.69415 | 9.24350 | 1190 ft | 12 kts | 172° |
| 2026-04-24 19:48 | 48.69381 | 9.24265 | 1192 ft | 10 kts | 255° |
| 2026-04-24 19:48 | 48.69359 | 9.24158 | 1194 ft | 18 kts | 253° |
| 2026-04-24 19:48 | 48.68990 | 9.22214 | 1284 ft | 154 kts | 255° |
| 2026-04-24 19:49 | 48.68405 | 9.18995 | 2574 ft | 168 kts | 256° |
| 2026-04-24 19:49 | 48.67664 | 9.15134 | 3416 ft | 216 kts | 255° |
| 2026-04-24 19:50 | 48.67708 | 9.07955 | 5878 ft | 248 kts | 307° |
| 2026-04-24 19:50 | 48.68979 | 9.06175 | 6854 ft | 255 kts | 332° |
| 2026-04-24 19:51 | 48.72626 | 9.04862 | 8519 ft | 278 kts | 345° |
| 2026-04-24 19:51 | 48.74544 | 9.04292 | 9441 ft | 286 kts | 356° |
| 2026-04-24 19:52 | 48.78352 | 9.06234 | 10864 ft | 317 kts | 40° |
| 2026-04-24 19:52 | 48.79742 | 9.08959 | 11419 ft | 333 kts | 56° |
| 2026-04-24 19:52 | 48.80966 | 9.11986 | 12236 ft | 340 kts | 55° |
| 2026-04-24 19:52 | 48.82296 | 9.14973 | 13121 ft | 343 kts | 53° |
| 2026-04-24 19:53 | 48.83698 | 9.17924 | 13983 ft | 347 kts | 52° |
| 2026-04-24 19:53 | 48.85138 | 9.20899 | 14717 ft | 352 kts | 52° |
| 2026-04-24 19:53 | 48.88052 | 9.26970 | 16201 ft | 360 kts | 51° |
| 2026-04-24 19:54 | 48.89770 | 9.29736 | 16918 ft | 362 kts | 38° |
| 2026-04-24 19:54 | 48.91875 | 9.31851 | 17626 ft | 365 kts | 25° |
| 2026-04-24 19:54 | 48.94261 | 9.33168 | 18331 ft | 367 kts | 11° |
| 2026-04-24 19:54 | 48.96805 | 9.33588 | 18958 ft | 369 kts | 357° |
| 2026-04-24 19:55 | 48.98506 | 9.33457 | 19382 ft | 371 kts | 354° |
| 2026-04-24 19:55 | 49.01972 | 9.33156 | 20277 ft | 375 kts | 355° |
| 2026-04-24 19:55 | 49.04586 | 9.32945 | 20948 ft | 378 kts | 355° |
| 2026-04-24 19:55 | 49.07245 | 9.32739 | 21619 ft | 381 kts | 355° |
| 2026-04-24 19:56 | 49.09880 | 9.32534 | 22272 ft | 384 kts | 355° |
| 2026-04-24 19:56 | 49.12560 | 9.32326 | 22922 ft | 387 kts | 355° |
| 2026-04-24 19:56 | 49.15256 | 9.32114 | 23575 ft | 390 kts | 354° |
| 2026-04-24 19:56 | 49.17986 | 9.31897 | 24097 ft | 394 kts | 354° |
| 2026-04-24 19:57 | 49.20747 | 9.31670 | 24406 ft | 404 kts | 354° |
| 2026-04-24 19:57 | 49.23604 | 9.31429 | 24532 ft | 417 kts | 354° |
| 2026-04-24 19:57 | 49.26529 | 9.31193 | 24865 ft | 424 kts | 354° |
| 2026-04-24 19:57 | 49.29486 | 9.30963 | 25268 ft | 427 kts | 354° |
| 2026-04-24 19:58 | 49.32468 | 9.30735 | 25695 ft | 431 kts | 354° |
| 2026-04-24 19:58 | 49.35473 | 9.30589 | 26115 ft | 435 kts | 359° |
| 2026-04-24 19:58 | 49.38509 | 9.30971 | 26549 ft | 440 kts | 2° |
| 2026-04-24 19:58 | 49.41565 | 9.31440 | 26980 ft | 442 kts | 2° |
| 2026-04-24 19:59 | 49.44635 | 9.31902 | 27400 ft | 445 kts | 2° |
| 2026-04-24 19:59 | 49.47730 | 9.32361 | 27804 ft | 448 kts | 2° |
| 2026-04-24 19:59 | 49.50843 | 9.32814 | 28208 ft | 451 kts | 2° |
| 2026-04-24 19:59 | 49.53976 | 9.33270 | 28595 ft | 454 kts | 2° |
| 2026-04-24 20:00 | 49.57128 | 9.33733 | 28965 ft | 457 kts | 2° |
| 2026-04-24 20:00 | 49.60300 | 9.34205 | 29343 ft | 459 kts | 2° |
| 2026-04-24 20:00 | 49.63491 | 9.34684 | 29719 ft | 462 kts | 2° |
| 2026-04-24 20:00 | 49.66701 | 9.35165 | 30078 ft | 464 kts | 2° |
| 2026-04-24 20:01 | 49.69925 | 9.35646 | 30389 ft | 467 kts | 2° |
| 2026-04-24 20:01 | 49.73166 | 9.36131 | 30724 ft | 468 kts | 2° |
| 2026-04-24 20:01 | 49.76386 | 9.36951 | 31147 ft | 471 kts | 10° |
| 2026-04-24 20:01 | 49.79566 | 9.38170 | 31593 ft | 470 kts | 11° |
| 2026-04-24 20:02 | 49.81669 | 9.38980 | 31897 ft | 470 kts | 10° |
| 2026-04-24 20:02 | 49.85903 | 9.40614 | 32499 ft | 468 kts | 10° |
| 2026-04-24 20:02 | 49.89061 | 9.41832 | 32942 ft | 467 kts | 10° |
| 2026-04-24 20:02 | 49.92205 | 9.43046 | 33391 ft | 466 kts | 10° |
| 2026-04-24 20:03 | 49.95350 | 9.44260 | 33846 ft | 465 kts | 10° |
| 2026-04-24 20:03 | 49.98494 | 9.45471 | 34277 ft | 465 kts | 10° |
| 2026-04-24 20:03 | 50.01623 | 9.46677 | 34670 ft | 464 kts | 10° |
| 2026-04-24 20:03 | 50.04714 | 9.47873 | 35086 ft | 463 kts | 9° |
| 2026-04-24 20:04 | 50.07857 | 9.48842 | 35482 ft | 458 kts | 2° |
| 2026-04-24 20:04 | 50.11018 | 9.49370 | 35870 ft | 456 kts | 1° |
| 2026-04-24 20:04 | 50.14172 | 9.49888 | 36234 ft | 456 kts | 1° |
| 2026-04-24 20:05 | 50.20481 | 9.50932 | 36170 ft | 455 kts | 1° |
| 2026-04-24 20:05 | 50.26785 | 9.51993 | 36187 ft | 455 kts | 1° |
| 2026-04-24 20:06 | 50.33074 | 9.53063 | 36172 ft | 454 kts | 1° |
| 2026-04-24 20:06 | 50.39362 | 9.54130 | 36173 ft | 454 kts | 1° |
| 2026-04-24 20:07 | 50.44581 | 9.55010 | 36174 ft | 454 kts | 1° |
| 2026-04-24 20:07 | 50.51925 | 9.56249 | 36162 ft | 453 kts | 1° |
| 2026-04-24 20:08 | 50.58196 | 9.57321 | 36173 ft | 453 kts | 1° |
| 2026-04-24 20:08 | 50.64469 | 9.58391 | 36169 ft | 453 kts | 1° |
| 2026-04-24 20:09 | 50.70745 | 9.59466 | 36174 ft | 453 kts | 1° |
| 2026-04-24 20:09 | 50.77016 | 9.60579 | 36172 ft | 454 kts | 1° |
| 2026-04-24 20:10 | 50.83288 | 9.61812 | 36171 ft | 454 kts | 2° |
| 2026-04-24 20:10 | 50.89561 | 9.63061 | 36175 ft | 454 kts | 1° |
| 2026-04-24 20:11 | 50.95831 | 9.64273 | 36170 ft | 454 kts | 1° |
| 2026-04-24 20:11 | 51.02096 | 9.65488 | 36168 ft | 454 kts | 1° |
| 2026-04-24 20:12 | 51.08319 | 9.66713 | 36167 ft | 454 kts | 1° |
| 2026-04-24 20:12 | 51.14582 | 9.67951 | 36165 ft | 454 kts | 1° |
| 2026-04-24 20:13 | 51.20841 | 9.69191 | 36160 ft | 452 kts | 1° |
| 2026-04-24 20:13 | 51.27097 | 9.70276 | 36165 ft | 451 kts | 360° |
| 2026-04-24 20:14 | 51.33341 | 9.71213 | 36168 ft | 451 kts | 360° |
| 2026-04-24 20:14 | 51.39587 | 9.72183 | 36166 ft | 451 kts | 360° |
| 2026-04-24 20:15 | 51.45822 | 9.73202 | 36164 ft | 450 kts | 0° |
| 2026-04-24 20:15 | 51.52056 | 9.74302 | 36168 ft | 451 kts | 1° |
| 2026-04-24 20:16 | 51.58291 | 9.75514 | 36170 ft | 452 kts | 1° |
| 2026-04-24 20:16 | 51.64574 | 9.76727 | 36187 ft | 456 kts | 1° |
| 2026-04-24 20:17 | 51.70881 | 9.77931 | 36172 ft | 456 kts | 1° |
| 2026-04-24 20:17 | 51.80342 | 9.79732 | 36169 ft | 456 kts | 1° |
| 2026-04-24 20:18 | 51.86651 | 9.80939 | 36169 ft | 456 kts | 1° |
| 2026-04-24 20:18 | 51.92952 | 9.82151 | 36167 ft | 456 kts | 1° |
| 2026-04-24 20:19 | 51.99248 | 9.83365 | 36169 ft | 455 kts | 1° |
| 2026-04-24 20:19 | 52.05538 | 9.84597 | 36170 ft | 455 kts | 1° |
| 2026-04-24 20:20 | 52.11834 | 9.85833 | 36193 ft | 456 kts | 1° |
| 2026-04-24 20:20 | 52.14996 | 9.86451 | 35790 ft | 458 kts | 1° |
| 2026-04-24 20:20 | 52.18153 | 9.87068 | 35259 ft | 458 kts | 1° |
| 2026-04-24 20:21 | 52.21320 | 9.87689 | 34648 ft | 459 kts | 1° |
| 2026-04-24 20:21 | 52.24496 | 9.88341 | 34034 ft | 463 kts | 4° |
| 2026-04-24 20:21 | 52.27659 | 9.89535 | 33355 ft | 469 kts | 9° |
| 2026-04-24 20:21 | 52.30815 | 9.90926 | 32694 ft | 471 kts | 9° |
| 2026-04-24 20:22 | 52.33983 | 9.92321 | 32046 ft | 472 kts | 9° |
| 2026-04-24 20:22 | 52.37159 | 9.93720 | 31435 ft | 474 kts | 9° |
| 2026-04-24 20:22 | 52.40347 | 9.95125 | 30815 ft | 475 kts | 9° |
| 2026-04-24 20:22 | 52.43548 | 9.96537 | 30185 ft | 477 kts | 9° |
| 2026-04-24 20:23 | 52.46755 | 9.97955 | 29474 ft | 478 kts | 9° |
| 2026-04-24 20:23 | 52.49969 | 9.99380 | 28780 ft | 479 kts | 10° |
| 2026-04-24 20:23 | 52.53192 | 10.00813 | 28099 ft | 480 kts | 10° |
| 2026-04-24 20:23 | 52.56416 | 10.02253 | 27438 ft | 480 kts | 10° |
| 2026-04-24 20:24 | 52.58540 | 10.03204 | 27034 ft | 477 kts | 10° |
| 2026-04-24 20:24 | 52.62759 | 10.05092 | 26195 ft | 471 kts | 11° |
| 2026-04-24 20:24 | 52.65949 | 10.06517 | 25665 ft | 466 kts | 11° |
| 2026-04-24 20:24 | 52.69086 | 10.07918 | 25419 ft | 472 kts | 11° |
| 2026-04-24 20:25 | 52.72291 | 10.09345 | 25131 ft | 483 kts | 11° |
| 2026-04-24 20:25 | 52.75545 | 10.10798 | 24676 ft | 484 kts | 11° |
| 2026-04-24 20:25 | 52.78829 | 10.11781 | 24224 ft | 476 kts | 0° |
| 2026-04-24 20:25 | 52.82079 | 10.11967 | 23685 ft | 472 kts | 358° |
| 2026-04-24 20:26 | 52.85385 | 10.12087 | 22998 ft | 467 kts | 358° |
| 2026-04-24 20:26 | 52.88575 | 10.12185 | 22310 ft | 461 kts | 357° |
| 2026-04-24 20:26 | 52.91766 | 10.12275 | 21633 ft | 456 kts | 358° |
| 2026-04-24 20:26 | 52.94962 | 10.12368 | 20965 ft | 451 kts | 358° |
| 2026-04-24 20:27 | 52.98087 | 10.12463 | 20315 ft | 446 kts | 358° |
| 2026-04-24 20:27 | 53.01128 | 10.12557 | 19690 ft | 441 kts | 358° |
| 2026-04-24 20:27 | 53.04213 | 10.12489 | 19057 ft | 433 kts | 350° |
| 2026-04-24 20:27 | 53.07087 | 10.11543 | 18465 ft | 422 kts | 345° |
| 2026-04-24 20:28 | 53.09894 | 10.10478 | 18271 ft | 403 kts | 344° |
| 2026-04-24 20:28 | 53.12565 | 10.09467 | 18067 ft | 387 kts | 344° |
| 2026-04-24 20:28 | 53.15145 | 10.08495 | 17828 ft | 374 kts | 344° |
| 2026-04-24 20:28 | 53.17641 | 10.07558 | 17591 ft | 361 kts | 344° |
| 2026-04-24 20:29 | 53.19279 | 10.06945 | 17497 ft | 351 kts | 344° |
| 2026-04-24 20:29 | 53.22355 | 10.05799 | 17321 ft | 333 kts | 344° |
| 2026-04-24 20:29 | 53.24575 | 10.04978 | 17189 ft | 321 kts | 344° |
| 2026-04-24 20:29 | 53.26713 | 10.04193 | 17050 ft | 310 kts | 344° |
| 2026-04-24 20:30 | 53.28801 | 10.03430 | 16782 ft | 304 kts | 344° |
| 2026-04-24 20:30 | 53.30855 | 10.02677 | 16438 ft | 301 kts | 344° |
| 2026-04-24 20:30 | 53.32899 | 10.01923 | 16093 ft | 299 kts | 344° |
| 2026-04-24 20:30 | 53.34922 | 10.01172 | 15765 ft | 297 kts | 344° |
| 2026-04-24 20:31 | 53.36251 | 10.00678 | 15542 ft | 295 kts | 344° |
| 2026-04-24 20:31 | 53.38252 | 9.99932 | 15201 ft | 293 kts | 344° |
| 2026-04-24 20:31 | 53.40235 | 9.99193 | 14864 ft | 291 kts | 344° |
| 2026-04-24 20:31 | 53.42207 | 9.98456 | 14536 ft | 290 kts | 344° |
| 2026-04-24 20:32 | 53.44169 | 9.97721 | 14224 ft | 288 kts | 344° |
| 2026-04-24 20:32 | 53.46142 | 9.97210 | 13898 ft | 290 kts | 358° |
| 2026-04-24 20:32 | 53.48083 | 9.98072 | 13717 ft | 291 kts | 24° |
| 2026-04-24 20:32 | 53.49596 | 10.00306 | 13581 ft | 293 kts | 50° |
| 2026-04-24 20:33 | 53.50400 | 10.03440 | 13443 ft | 293 kts | 71° |
| 2026-04-24 20:33 | 53.50842 | 10.06745 | 13288 ft | 287 kts | 74° |
| 2026-04-24 20:33 | 53.51237 | 10.10000 | 13067 ft | 283 kts | 74° |
| 2026-04-24 20:33 | 53.51621 | 10.13234 | 12794 ft | 281 kts | 74° |
| 2026-04-24 20:34 | 53.51996 | 10.16447 | 12514 ft | 280 kts | 74° |
| 2026-04-24 20:34 | 53.52367 | 10.19642 | 12239 ft | 278 kts | 73° |
| 2026-04-24 20:34 | 53.53080 | 10.22559 | 11952 ft | 266 kts | 50° |
| 2026-04-24 20:34 | 53.54194 | 10.24999 | 11645 ft | 262 kts | 45° |
| 2026-04-24 20:35 | 53.55347 | 10.27361 | 11326 ft | 260 kts | 44° |
| 2026-04-24 20:35 | 53.56490 | 10.29711 | 10996 ft | 258 kts | 44° |
| 2026-04-24 20:35 | 53.57617 | 10.32052 | 10611 ft | 257 kts | 44° |
| 2026-04-24 20:35 | 53.58736 | 10.34379 | 10191 ft | 254 kts | 44° |
| 2026-04-24 20:36 | 53.59838 | 10.36688 | 9700 ft | 252 kts | 44° |
| 2026-04-24 20:36 | 53.60933 | 10.38977 | 9171 ft | 250 kts | 44° |
| 2026-04-24 20:36 | 53.62023 | 10.41243 | 8655 ft | 248 kts | 45° |
| 2026-04-24 20:36 | 53.63108 | 10.43484 | 8145 ft | 245 kts | 44° |
| 2026-04-24 20:37 | 53.64185 | 10.45697 | 7642 ft | 243 kts | 45° |
| 2026-04-24 20:37 | 53.65257 | 10.47891 | 7132 ft | 242 kts | 44° |
| 2026-04-24 20:37 | 53.66328 | 10.50069 | 6771 ft | 240 kts | 45° |
| 2026-04-24 20:37 | 53.67396 | 10.52230 | 6432 ft | 239 kts | 44° |
| 2026-04-24 20:38 | 53.68463 | 10.54371 | 6060 ft | 237 kts | 42° |
| 2026-04-24 20:38 | 53.69774 | 10.55866 | 5721 ft | 223 kts | 12° |
| 2026-04-24 20:38 | 53.71266 | 10.55877 | 5360 ft | 213 kts | 339° |
| 2026-04-24 20:38 | 53.72562 | 10.54701 | 5013 ft | 211 kts | 326° |
| 2026-04-24 20:39 | 53.73761 | 10.53326 | 4837 ft | 212 kts | 324° |
| 2026-04-24 20:39 | 53.74970 | 10.51900 | 4708 ft | 212 kts | 324° |
| 2026-04-24 20:39 | 53.76166 | 10.50451 | 4577 ft | 211 kts | 321° |
| 2026-04-24 20:39 | 53.76983 | 10.48416 | 4447 ft | 215 kts | 289° |
| 2026-04-24 20:40 | 53.77019 | 10.45859 | 4308 ft | 222 kts | 267° |
| 2026-04-24 20:40 | 53.76767 | 10.43272 | 4181 ft | 224 kts | 265° |
| 2026-04-24 20:40 | 53.76481 | 10.40689 | 4055 ft | 223 kts | 264° |
| 2026-04-24 20:40 | 53.76193 | 10.38107 | 3884 ft | 223 kts | 264° |
| 2026-04-24 20:41 | 53.75901 | 10.35534 | 3685 ft | 223 kts | 265° |
| 2026-04-24 20:41 | 53.75600 | 10.32965 | 3486 ft | 223 kts | 264° |
| 2026-04-24 20:41 | 53.75290 | 10.30399 | 3297 ft | 222 kts | 264° |
| 2026-04-24 20:41 | 53.74980 | 10.27873 | 3102 ft | 215 kts | 264° |
| 2026-04-24 20:42 | 53.74688 | 10.25471 | 3006 ft | 203 kts | 264° |
| 2026-04-24 20:42 | 53.74405 | 10.23164 | 3005 ft | 200 kts | 264° |
| 2026-04-24 20:42 | 53.73902 | 10.20947 | 3008 ft | 208 kts | 241° |
| 2026-04-24 20:42 | 53.73009 | 10.19093 | 2938 ft | 199 kts | 237° |
| 2026-04-24 20:43 | 53.72138 | 10.17338 | 2755 ft | 192 kts | 237° |
| 2026-04-24 20:43 | 53.71291 | 10.15614 | 2493 ft | 189 kts | 237° |
| 2026-04-24 20:43 | 53.70462 | 10.13924 | 2236 ft | 185 kts | 237° |
| 2026-04-24 20:43 | 53.69655 | 10.12282 | 1979 ft | 178 kts | 237° |
| 2026-04-24 20:44 | 53.68886 | 10.10718 | 1749 ft | 169 kts | 237° |
| 2026-04-24 20:44 | 53.68155 | 10.09230 | 1517 ft | 159 kts | 237° |
| 2026-04-24 20:44 | 53.67485 | 10.07871 | 1309 ft | 141 kts | 238° |
| 2026-04-24 20:44 | 53.66892 | 10.06667 | 1122 ft | 127 kts | 238° |
| 2026-04-24 20:45 | 53.66347 | 10.05556 | 944 ft | 120 kts | 238° |
| 2026-04-24 20:45 | 53.65821 | 10.04482 | 779 ft | 118 kts | 238° |
| 2026-04-24 20:45 | 53.65294 | 10.03413 | 605 ft | 121 kts | 237° |
| 2026-04-24 20:45 | 53.64769 | 10.02341 | 445 ft | 115 kts | 238° |
| 2026-04-24 20:46 | 53.64249 | 10.01283 | 303 ft | 120 kts | 232° |
| 2026-04-24 20:46 | 53.63714 | 10.00200 | 134 ft | 120 kts | 237° |
| 2026-04-24 20:46 | 53.63209 | 9.99173 | 47 ft | 100 kts | 231° |
| 2026-04-24 20:46 | 53.62919 | 9.98594 | 45 ft | 23 kts | 222° |
| 2026-04-24 20:47 | 53.62781 | 9.98480 | 44 ft | 23 kts | 191° |
| 2026-04-24 20:47 | 53.62701 | 9.98501 | 47 ft | 8 kts | 131° |
| 2026-04-24 20:47 | 53.62717 | 9.98607 | 45 ft | 12 kts | 52° |
| 2026-04-24 20:47 | 53.62780 | 9.98732 | 47 ft | 15 kts | 49° |
| 2026-04-24 20:48 | 53.62850 | 9.98875 | 47 ft | 17 kts | 51° |
| 2026-04-24 20:48 | 53.62918 | 9.99016 | 47 ft | 11 kts | 49° |
| 2026-04-24 20:48 | 53.62973 | 9.99125 | 47 ft | 13 kts | 50° |
| 2026-04-24 20:48 | 53.63035 | 9.99250 | 47 ft | 15 kts | 51° |
| 2026-04-24 20:49 | 53.63078 | 9.99351 | 47 ft | 0 kts | 56° |
| 2026-04-24 20:50 | 53.63082 | 9.99361 | 47 ft | 4 kts | 56° |
| 2026-04-24 20:50 | 53.63112 | 9.99436 | 46 ft | 12 kts | 56° |
| 2026-04-24 20:50 | 53.63175 | 9.99576 | 46 ft | 18 kts | 51° |
| 2026-04-24 20:51 | 53.63226 | 9.99687 | 49 ft | 10 kts | 64° |
| 2026-04-24 20:51 | 53.63190 | 9.99788 | 49 ft | 13 kts | 151° |
| 2026-04-24 20:51 | 53.63101 | 9.99867 | 49 ft | 16 kts | 152° |
| 2026-04-24 20:51 | 53.62998 | 9.99957 | 49 ft | 17 kts | 153° |
| 2026-04-24 20:52 | 53.62888 | 10.00041 | 49 ft | 18 kts | 163° |
| 2026-04-24 20:52 | 53.62774 | 10.00133 | 47 ft | 19 kts | 152° |
| 2026-04-24 20:52 | 53.62710 | 10.00206 | 49 ft | 6 kts | 103° |
| 2026-04-24 20:52 | 53.62730 | 10.00279 | 46 ft | 5 kts | 62° |
| 2026-04-24 20:53 | 53.62740 | 10.00311 | 49 ft | 1 kts | 62° |
| 2026-04-24 20:53 | 53.62741 | 10.00313 | 49 ft | 0 kts | 62° |